createdAt,value
2019-01-27T00:00:58.794Z,71.84
2019-01-27T00:03:46.878Z,71.15
2019-01-27T00:06:35.122Z,71.66
2019-01-27T00:09:22.340Z,72.56
2019-01-27T00:12:09.626Z,72.25
2019-01-27T00:14:57.088Z,71.67
2019-01-27T00:17:43.922Z,71.84
2019-01-27T00:20:31.334Z,73.11
2019-01-27T00:23:18.949Z,73.03
2019-01-27T00:26:06.678Z,73.25
2019-01-27T00:28:54.107Z,72.40
2019-01-27T00:31:41.379Z,70.69
2019-01-27T00:34:28.486Z,69.24
2019-01-27T00:37:15.360Z,68.91
2019-01-27T00:40:02.570Z,69.00
2019-01-27T00:42:50.198Z,68.82
2019-01-27T00:45:37.626Z,70.18
2019-01-27T00:48:25.074Z,70.34
2019-01-27T00:51:13.085Z,70.87
2019-01-27T00:54:00.816Z,71.39
2019-01-27T00:56:48.648Z,70.44
2019-01-27T00:59:36.278Z,70.83
2019-01-27T01:02:23.885Z,70.09
2019-01-27T01:05:11.536Z,69.10
2019-01-27T01:07:59.060Z,68.35
2019-01-27T01:10:46.665Z,69.31
2019-01-27T01:13:33.781Z,68.86
2019-01-27T01:16:21.645Z,70.21
2019-01-27T01:19:09.100Z,71.39
2019-01-27T01:21:57.004Z,70.86
2019-01-27T01:24:44.838Z,72.05
2019-01-27T01:27:32.342Z,73.72
2019-01-27T01:30:28.607Z,74.72
2019-01-27T01:33:15.921Z,73.55
2019-01-27T01:36:03.966Z,73.96
2019-01-27T01:38:51.846Z,74.62
2019-01-27T01:41:39.256Z,74.01
2019-01-27T01:44:26.434Z,73.63
2019-01-27T01:47:13.754Z,72.38
2019-01-27T01:50:01.690Z,71.55
2019-01-27T01:52:49.099Z,71.55
2019-01-27T01:55:36.043Z,71.06
2019-01-27T01:58:23.243Z,71.71
2019-01-27T02:01:10.563Z,71.06
2019-01-27T02:03:58.192Z,71.09
2019-01-27T02:06:45.617Z,71.45
2019-01-27T02:09:33.714Z,72.12
2019-01-27T02:12:21.488Z,71.38
2019-01-27T02:15:20.904Z,70.88
2019-01-27T02:18:08.318Z,71.29
2019-01-27T02:20:55.744Z,71.35
2019-01-27T02:23:43.477Z,70.44
2019-01-27T02:26:30.461Z,70.41
2019-01-27T02:29:17.587Z,71.23
2019-01-27T02:32:04.915Z,71.43
2019-01-27T02:34:52.354Z,70.95
2019-01-27T02:37:39.652Z,72.53
2019-01-27T02:40:27.402Z,73.06
2019-01-27T02:43:15.236Z,72.72
2019-01-27T02:46:03.275Z,74.58
2019-01-27T02:48:50.706Z,74.97
2019-01-27T02:51:37.916Z,75.70
2019-01-27T02:54:25.254Z,73.79
2019-01-27T02:57:12.973Z,73.10
2019-01-27T03:00:00.599Z,71.72
2019-01-27T03:02:48.438Z,70.34
2019-01-27T03:05:46.713Z,73.13
2019-01-27T03:08:34.955Z,72.86
2019-01-27T03:11:22.160Z,73.07
2019-01-27T03:14:10.111Z,73.53
2019-01-27T03:16:57.843Z,73.64
2019-01-27T03:19:44.667Z,72.87
2019-01-27T03:22:32.186Z,72.40
2019-01-27T03:25:20.035Z,70.98
2019-01-27T03:28:07.554Z,71.39
2019-01-27T03:30:55.080Z,72.00
2019-01-27T03:33:42.692Z,71.53
2019-01-27T03:36:30.013Z,71.64
2019-01-27T03:39:17.232Z,71.04
2019-01-27T03:42:06.094Z,71.76
2019-01-27T03:44:53.336Z,72.74
2019-01-27T03:47:40.837Z,74.22
2019-01-27T03:50:28.300Z,73.48
2019-01-27T03:53:15.587Z,72.13
2019-01-27T03:56:03.530Z,73.55
2019-01-27T03:58:50.738Z,72.80
2019-01-27T04:01:38.374Z,72.52
2019-01-27T04:04:25.690Z,72.64
2019-01-27T04:07:14.032Z,73.76
2019-01-27T04:10:01.871Z,73.87
2019-01-27T04:12:49.294Z,73.58
2019-01-27T04:15:36.821Z,72.27
2019-01-27T04:18:24.463Z,72.88
2019-01-27T04:21:12.197Z,72.25
2019-01-27T04:24:00.028Z,72.86
2019-01-27T04:26:47.645Z,72.99
2019-01-27T04:29:35.067Z,71.07
2019-01-27T04:32:22.259Z,72.12
2019-01-27T04:35:11.664Z,72.77
2019-01-27T04:37:58.871Z,73.22
2019-01-27T04:40:46.506Z,72.11
2019-01-27T04:43:34.031Z,71.52
2019-01-27T04:46:21.758Z,72.03
2019-01-27T04:49:09.494Z,72.23
2019-01-27T04:51:56.810Z,72.15
2019-01-27T04:54:44.340Z,71.54
2019-01-27T04:57:32.068Z,72.60
2019-01-27T05:00:21.657Z,70.93
2019-01-27T05:03:10.352Z,70.39
2019-01-27T05:05:57.667Z,72.04
2019-01-27T05:08:45.155Z,71.42
2019-01-27T05:11:32.672Z,71.43
2019-01-27T05:14:19.480Z,71.20
2019-01-27T05:17:07.417Z,71.46
2019-01-27T05:19:54.739Z,71.46
2019-01-27T05:22:42.471Z,71.54
2019-01-27T05:25:29.916Z,71.72
2019-01-27T05:28:17.422Z,70.93
2019-01-27T05:31:04.745Z,72.39
2019-01-27T05:33:52.370Z,73.19
2019-01-27T05:36:40.001Z,74.67
2019-01-27T05:39:27.535Z,74.59
2019-01-27T05:42:14.824Z,74.25
2019-01-27T05:45:02.373Z,74.22
2019-01-27T05:47:49.905Z,74.28
2019-01-27T05:50:37.733Z,74.47
2019-01-27T05:53:25.475Z,73.77
2019-01-27T05:56:12.689Z,73.28
2019-01-27T05:59:00.543Z,72.08
2019-01-27T06:01:48.056Z,71.34
2019-01-27T06:04:35.788Z,71.20
2019-01-27T06:07:24.846Z,71.51
2019-01-27T06:10:13.799Z,71.29
2019-01-27T06:13:01.325Z,74.07
2019-01-27T06:15:48.543Z,73.12
2019-01-27T06:18:36.275Z,72.33
2019-01-27T06:21:23.905Z,71.97
2019-01-27T06:24:11.329Z,72.27
2019-01-27T06:26:58.613Z,72.01
2019-01-27T06:29:46.100Z,73.08
2019-01-27T06:32:44.047Z,72.50
2019-01-27T06:35:31.980Z,71.19
2019-01-27T06:38:19.816Z,72.87
2019-01-27T06:41:07.651Z,72.69
2019-01-27T06:43:55.177Z,72.86
2019-01-27T06:46:42.715Z,72.70
2019-01-27T06:49:30.534Z,71.64
2019-01-27T06:52:17.900Z,72.64
2019-01-27T06:55:09.378Z,72.65
2019-01-27T06:57:56.920Z,73.31
2019-01-27T07:00:55.285Z,72.90
2019-01-27T07:03:44.438Z,72.12
2019-01-27T07:06:36.112Z,72.83
2019-01-27T07:09:24.835Z,71.12
2019-01-27T07:12:13.786Z,70.38
2019-01-27T07:15:03.057Z,70.17
2019-01-27T07:17:54.468Z,71.12
2019-01-27T07:20:55.022Z,70.27
2019-01-27T07:24:00.650Z,69.85
2019-01-27T07:27:02.858Z,69.47
2019-01-27T07:29:54.649Z,71.33
2019-01-27T07:32:49.492Z,71.78
2019-01-27T07:35:47.523Z,71.15
2019-01-27T07:38:39.926Z,70.73
2019-01-27T07:41:28.943Z,70.04
2019-01-27T07:44:35.186Z,70.45
2019-01-27T07:47:24.255Z,70.72
2019-01-27T07:50:26.835Z,72.38
2019-01-27T07:53:17.433Z,73.25
2019-01-27T07:56:24.793Z,72.89
2019-01-27T07:59:19.105Z,72.14
2019-01-27T08:02:14.219Z,72.97
2019-01-27T08:05:03.986Z,72.44
2019-01-27T08:07:59.304Z,74.10
2019-01-27T08:10:55.424Z,72.22
2019-01-27T08:13:53.499Z,73.07
2019-01-27T08:16:57.955Z,74.49
2019-01-27T08:20:03.080Z,74.73
2019-01-27T08:22:52.432Z,74.37
2019-01-27T08:25:57.362Z,73.17
2019-01-27T08:28:52.220Z,73.55
2019-01-27T08:31:50.336Z,74.27
2019-01-27T08:34:41.788Z,73.93
2019-01-27T08:37:30.610Z,73.90
2019-01-27T08:40:19.896Z,74.00
2019-01-27T08:43:17.954Z,75.74
2019-01-27T08:46:07.487Z,74.21
2019-01-27T08:48:54.549Z,74.12
2019-01-27T08:51:41.749Z,73.92
2019-01-27T08:54:29.296Z,73.57
2019-01-27T08:57:16.915Z,72.29
2019-01-27T09:00:11.099Z,71.87
2019-01-27T09:02:59.831Z,72.16
2019-01-27T09:05:49.119Z,71.55
2019-01-27T09:08:44.225Z,71.18
2019-01-27T09:11:34.213Z,71.82
2019-01-27T09:14:26.143Z,72.14
2019-01-27T09:17:24.321Z,72.05
2019-01-27T09:20:19.320Z,71.29
2019-01-27T09:23:16.681Z,70.99
2019-01-27T09:26:11.608Z,71.07
2019-01-27T09:29:00.429Z,71.51
2019-01-27T09:32:04.640Z,71.29
2019-01-27T09:35:08.559Z,71.69
2019-01-27T09:37:57.832Z,73.22
2019-01-27T09:40:46.900Z,72.86
2019-01-27T09:43:45.268Z,73.57
2019-01-27T09:46:52.455Z,73.74
2019-01-27T09:49:59.450Z,72.38
2019-01-27T09:52:58.028Z,72.23
2019-01-27T09:56:02.866Z,73.85
2019-01-27T09:58:52.537Z,73.71
2019-01-27T10:01:41.494Z,72.94
2019-01-27T10:04:36.392Z,73.27
2019-01-27T10:07:27.617Z,72.59
2019-01-27T10:10:25.270Z,71.86
2019-01-27T10:13:14.128Z,69.99
2019-01-27T10:16:06.271Z,69.56
2019-01-27T10:18:55.083Z,71.45
2019-01-27T10:21:53.088Z,71.61
2019-01-27T10:24:42.662Z,72.49
2019-01-27T10:27:31.686Z,72.73
2019-01-27T10:30:24.965Z,73.11
2019-01-27T10:33:13.683Z,73.71
2019-01-27T10:36:14.307Z,73.46
2019-01-27T10:39:18.797Z,73.22
2019-01-27T10:42:10.530Z,72.95
2019-01-27T10:45:11.338Z,72.89
2019-01-27T10:48:09.234Z,73.04
2019-01-27T10:51:07.306Z,72.33
2019-01-27T10:53:56.371Z,72.80
2019-01-27T10:56:51.230Z,71.32
2019-01-27T10:59:40.223Z,71.36
2019-01-27T11:02:36.697Z,70.67
2019-01-27T11:05:22.861Z,69.73
2019-01-27T11:08:12.330Z,68.54
2019-01-27T11:11:05.178Z,68.23
2019-01-27T11:14:00.833Z,69.01
2019-01-27T11:16:52.725Z,68.97
2019-01-27T11:19:41.788Z,69.00
2019-01-27T11:22:30.919Z,69.65
2019-01-27T11:25:20.632Z,70.03
2019-01-27T11:28:18.364Z,69.84
2019-01-27T11:31:24.151Z,71.30
2019-01-27T11:34:13.318Z,71.76
2019-01-27T11:37:05.161Z,70.52
2019-01-27T11:39:54.205Z,70.35
2019-01-27T11:42:51.869Z,70.68
2019-01-27T11:45:57.232Z,72.27
2019-01-27T11:48:46.700Z,72.40
2019-01-27T11:51:35.951Z,72.95
2019-01-27T11:54:23.578Z,73.41
2019-01-27T11:57:11.211Z,73.13
2019-01-27T11:59:59.196Z,73.63
2019-01-27T12:02:46.961Z,73.97
2019-01-27T12:05:34.226Z,73.73
2019-01-27T12:08:21.624Z,73.42
2019-01-27T12:11:09.353Z,74.27
2019-01-27T12:13:56.268Z,74.92
2019-01-27T12:16:44.205Z,74.38
2019-01-27T12:19:31.733Z,74.20
2019-01-27T12:22:19.154Z,74.38
2019-01-27T12:25:12.419Z,74.57
2019-01-27T12:27:59.837Z,74.86
2019-01-27T12:30:47.364Z,73.85
2019-01-27T12:33:34.580Z,72.38
2019-01-27T12:36:22.525Z,72.47
2019-01-27T12:39:09.737Z,72.75
2019-01-27T12:41:57.881Z,72.15
2019-01-27T12:44:45.305Z,72.65
2019-01-27T12:47:33.343Z,73.66
2019-01-27T12:50:21.379Z,73.65
2019-01-27T12:53:08.701Z,73.91
2019-01-27T12:55:56.012Z,73.22
2019-01-27T12:58:42.830Z,73.04
2019-01-27T13:01:31.689Z,71.56
2019-01-27T13:04:19.772Z,71.50
2019-01-27T13:07:07.665Z,71.92
2019-01-27T13:09:54.997Z,71.47
2019-01-27T13:12:42.863Z,70.54
2019-01-27T13:15:30.208Z,70.77
2019-01-27T13:18:17.566Z,69.41
2019-01-27T13:21:05.706Z,69.87
2019-01-27T13:23:53.043Z,70.63
2019-01-27T13:26:40.671Z,70.01
2019-01-27T13:29:28.511Z,70.03
2019-01-27T13:32:16.335Z,69.76
2019-01-27T13:35:04.673Z,69.54
2019-01-27T13:37:52.769Z,70.21
2019-01-27T13:40:40.426Z,70.27
2019-01-27T13:43:28.178Z,69.35
2019-01-27T13:46:15.819Z,68.41
2019-01-27T13:49:03.535Z,68.30
2019-01-27T13:51:51.371Z,68.98
2019-01-27T13:54:38.917Z,70.43
2019-01-27T13:57:26.624Z,71.61
2019-01-27T14:00:19.831Z,70.88
2019-01-27T14:03:07.585Z,71.26
2019-01-27T14:05:55.246Z,71.00
2019-01-27T14:08:43.084Z,70.06
2019-01-27T14:11:30.928Z,70.86
2019-01-27T14:14:18.040Z,69.44
2019-01-27T14:17:05.811Z,70.09
2019-01-27T14:19:53.414Z,69.50
2019-01-27T14:22:41.267Z,69.84
2019-01-27T14:25:30.524Z,70.16
2019-01-27T14:28:18.630Z,68.77
2019-01-27T14:31:05.848Z,68.91
2019-01-27T14:33:52.784Z,68.44
2019-01-27T14:36:40.089Z,69.31
2019-01-27T14:39:27.301Z,69.74
2019-01-27T14:42:14.528Z,70.08
2019-01-27T14:45:02.406Z,71.24
2019-01-27T14:47:50.190Z,71.51
2019-01-27T14:50:40.642Z,70.65
2019-01-27T14:53:28.106Z,70.20
2019-01-27T14:56:15.742Z,68.63
2019-01-27T14:59:03.467Z,68.30
2019-01-27T15:01:50.993Z,67.90
2019-01-27T15:04:38.519Z,68.22
2019-01-27T15:07:25.672Z,68.66
2019-01-27T15:10:19.106Z,68.65
2019-01-27T15:13:07.304Z,68.75
2019-01-27T15:15:54.689Z,68.70
2019-01-27T15:18:43.014Z,69.25
2019-01-27T15:21:30.334Z,70.32
2019-01-27T15:24:17.964Z,69.88
2019-01-27T15:27:05.796Z,68.65
2019-01-27T15:29:54.220Z,69.99
2019-01-27T15:32:41.689Z,69.31
2019-01-27T15:35:29.255Z,69.38
2019-01-27T15:38:16.815Z,68.93
2019-01-27T15:41:04.249Z,70.27
2019-01-27T15:43:51.627Z,70.37
2019-01-27T15:46:39.892Z,69.96
2019-01-27T15:49:28.589Z,70.33
2019-01-27T15:52:15.994Z,71.35
2019-01-27T15:55:03.524Z,71.25
2019-01-27T15:57:50.875Z,70.19
2019-01-27T16:00:38.881Z,68.95
2019-01-27T16:03:26.116Z,69.55
2019-01-27T16:06:13.835Z,69.94
2019-01-27T16:09:03.505Z,70.14
2019-01-27T16:11:51.145Z,69.81
2019-01-27T16:14:38.766Z,69.28
2019-01-27T16:17:26.291Z,69.28
2019-01-27T16:20:18.981Z,67.95
2019-01-27T16:23:13.668Z,67.98
2019-01-27T16:26:02.386Z,67.42
2019-01-27T16:28:49.400Z,67.39
2019-01-27T16:31:38.568Z,67.02
2019-01-27T16:34:27.947Z,68.45
2019-01-27T16:37:15.359Z,70.36
2019-01-27T16:40:02.273Z,69.21
2019-01-27T16:42:49.901Z,68.59
2019-01-27T16:45:37.738Z,67.76
2019-01-27T16:48:25.467Z,67.57
2019-01-27T16:51:13.404Z,68.13
2019-01-27T16:54:00.830Z,69.26
2019-01-27T16:56:48.250Z,68.42
2019-01-27T16:59:35.579Z,68.52
2019-01-27T17:02:23.820Z,69.27
2019-01-27T17:05:14.190Z,68.40
2019-01-27T17:08:01.953Z,69.43
2019-01-27T17:10:49.144Z,69.60
2019-01-27T17:13:36.584Z,69.39
2019-01-27T17:16:24.164Z,68.45
2019-01-27T17:19:11.637Z,68.97
2019-01-27T17:21:59.161Z,68.15
2019-01-27T17:24:46.719Z,67.42
2019-01-27T17:27:34.420Z,67.73
2019-01-27T17:30:26.865Z,67.59
2019-01-27T17:33:14.766Z,67.56
2019-01-27T17:36:02.227Z,67.68
2019-01-27T17:38:49.657Z,67.22
2019-01-27T17:41:37.030Z,67.36
2019-01-27T17:44:24.368Z,67.40
2019-01-27T17:47:11.716Z,67.40
2019-01-27T17:50:01.210Z,68.48
2019-01-27T17:52:50.198Z,68.52
2019-01-27T17:55:44.844Z,69.96
2019-01-27T17:58:54.221Z,70.02
2019-01-27T18:01:43.273Z,68.83
2019-01-27T18:04:32.439Z,68.19
2019-01-27T18:07:21.371Z,67.89
2019-01-27T18:10:24.562Z,68.46
2019-01-27T18:13:14.449Z,67.89
2019-01-27T18:16:03.505Z,67.33
2019-01-27T18:18:50.529Z,66.78
2019-01-27T18:21:38.356Z,66.48
2019-01-27T18:24:26.089Z,66.15
2019-01-27T18:27:12.923Z,65.93
2019-01-27T18:30:00.726Z,65.81
2019-01-27T18:32:48.463Z,65.62
2019-01-27T18:35:35.803Z,65.53
2019-01-27T18:38:23.516Z,65.71
2019-01-27T18:41:11.549Z,65.67
2019-01-27T18:43:58.795Z,66.24
2019-01-27T18:46:46.613Z,66.81
2019-01-27T18:49:33.831Z,67.47
2019-01-27T18:52:21.455Z,67.99
2019-01-27T18:55:13.097Z,67.62
2019-01-27T18:58:04.740Z,67.04
2019-01-27T19:00:57.041Z,67.03
2019-01-27T19:03:46.009Z,67.01
2019-01-27T19:06:35.270Z,67.39
2019-01-27T19:09:24.630Z,67.17
2019-01-27T19:12:19.633Z,67.89
2019-01-27T19:15:21.187Z,68.50
2019-01-27T19:18:26.946Z,68.63
2019-01-27T19:21:18.777Z,69.00
2019-01-27T19:24:19.300Z,68.83
2019-01-27T19:27:26.095Z,68.36
2019-01-27T19:30:23.727Z,69.03
2019-01-27T19:33:12.396Z,68.14
2019-01-27T19:36:12.975Z,69.55
2019-01-27T19:39:07.519Z,68.81
2019-01-27T19:41:56.794Z,68.59
2019-01-27T19:44:48.511Z,68.92
2019-01-27T19:47:40.752Z,68.05
2019-01-27T19:50:30.221Z,67.49
2019-01-27T19:53:19.386Z,68.53
2019-01-27T19:56:11.212Z,69.81
2019-01-27T19:59:01.098Z,69.73
2019-01-27T20:01:52.921Z,69.96
2019-01-27T20:04:44.607Z,69.66
2019-01-27T20:07:39.653Z,69.04
2019-01-27T20:10:31.170Z,69.12
2019-01-27T20:13:22.791Z,69.17
2019-01-27T20:16:11.545Z,70.01
2019-01-27T20:19:03.578Z,70.48
2019-01-27T20:22:09.125Z,69.71
2019-01-27T20:25:00.646Z,71.24
2019-01-27T20:27:52.267Z,70.51
2019-01-27T20:30:43.787Z,69.83
2019-01-27T20:33:36.370Z,70.40
2019-01-27T20:36:39.989Z,71.32
2019-01-27T20:39:44.734Z,71.09
2019-01-27T20:42:46.166Z,71.36
2019-01-27T20:45:37.948Z,71.57
2019-01-27T20:48:27.112Z,72.43
2019-01-27T20:51:16.587Z,74.24
2019-01-27T20:54:21.530Z,73.61
2019-01-27T20:57:26.214Z,73.10
2019-01-27T21:00:35.638Z,73.16
2019-01-27T21:03:24.442Z,74.15
2019-01-27T21:06:16.389Z,75.02
2019-01-27T21:09:06.459Z,74.80
2019-01-27T21:11:55.776Z,73.32
2019-01-27T21:14:53.489Z,71.73
2019-01-27T21:17:46.858Z,70.89
2019-01-27T21:20:34.380Z,71.06
2019-01-27T21:23:21.804Z,70.14
2019-01-27T21:26:09.189Z,69.34
2019-01-27T21:28:56.909Z,69.07
2019-01-27T21:31:44.431Z,68.38
2019-01-27T21:34:32.013Z,68.28
2019-01-27T21:37:39.076Z,67.70
2019-01-27T21:40:26.628Z,66.94
2019-01-27T21:43:14.105Z,66.38
2019-01-27T21:46:01.993Z,66.66
2019-01-27T21:48:49.743Z,66.53
2019-01-27T21:51:37.349Z,66.34
2019-01-27T21:54:24.665Z,66.30
2019-01-27T21:57:12.089Z,66.53
2019-01-27T21:59:58.899Z,66.72
2019-01-27T22:02:46.225Z,66.74
2019-01-27T22:05:33.421Z,66.13
2019-01-27T22:08:20.762Z,65.57
2019-01-27T22:11:08.496Z,65.59
2019-01-27T22:13:56.333Z,66.09
2019-01-27T22:16:43.650Z,66.77
2019-01-27T22:19:31.186Z,66.74
2019-01-27T22:22:18.802Z,66.95
2019-01-27T22:25:08.576Z,66.42
2019-01-27T22:27:55.932Z,66.64
2019-01-27T22:30:49.614Z,66.42
2019-01-27T22:33:36.694Z,66.93
2019-01-27T22:36:27.497Z,66.37
2019-01-27T22:39:15.434Z,66.33
2019-01-27T22:42:02.963Z,66.29
2019-01-27T22:44:50.487Z,66.25
2019-01-27T22:47:37.488Z,66.59
2019-01-27T22:50:25.029Z,66.35
2019-01-27T22:53:12.874Z,66.45
2019-01-27T22:56:00.388Z,67.05
2019-01-27T22:58:47.532Z,66.56
2019-01-27T23:01:35.549Z,66.03
2019-01-27T23:04:22.761Z,66.14
2019-01-27T23:07:10.393Z,66.41
2019-01-27T23:09:57.824Z,66.27
2019-01-27T23:12:45.343Z,66.20
2019-01-27T23:15:33.378Z,66.38
2019-01-27T23:18:21.108Z,66.23
2019-01-27T23:21:08.414Z,66.14
2019-01-27T23:23:55.653Z,66.14
2019-01-27T23:26:42.699Z,65.77
2019-01-27T23:29:30.601Z,66.38
2019-01-27T23:32:18.145Z,66.60
2019-01-27T23:35:07.341Z,66.78
2019-01-27T23:37:54.551Z,66.63
2019-01-27T23:40:41.734Z,66.77
2019-01-27T23:43:30.180Z,68.23
2019-01-27T23:46:17.090Z,67.83
2019-01-27T23:49:05.625Z,67.37
2019-01-27T23:51:53.167Z,67.25
2019-01-27T23:54:41.005Z,67.74
2019-01-27T23:57:28.103Z,68.53
